createdAt,value
2023-05-12T00:01:28.793Z,4.18
2023-05-12T00:03:55.565Z,4.32
2023-05-12T00:06:22.290Z,5.07
2023-05-12T00:08:48.820Z,4.80
2023-05-12T00:11:15.422Z,4.57
2023-05-12T00:13:41.965Z,5.10
2023-05-12T00:16:08.951Z,5.25
2023-05-12T00:18:35.666Z,4.88
2023-05-12T00:21:02.181Z,4.82
2023-05-12T00:23:28.652Z,5.00
2023-05-12T00:25:55.217Z,4.18
2023-05-12T00:28:21.746Z,5.30
2023-05-12T00:30:48.205Z,5.50
2023-05-12T00:33:14.742Z,5.68
2023-05-12T00:35:41.318Z,6.15
2023-05-12T00:38:07.842Z,5.15
2023-05-12T00:40:34.396Z,5.65
2023-05-12T00:43:00.907Z,4.40
2023-05-12T00:45:29.738Z,5.68
2023-05-12T00:47:57.135Z,5.60
2023-05-12T00:50:24.234Z,5.28
2023-05-12T00:52:50.886Z,6.55
2023-05-12T00:55:17.675Z,5.22
2023-05-12T00:57:44.400Z,6.05
2023-05-12T01:00:11.896Z,7.30
2023-05-12T01:02:39.079Z,7.20
2023-05-12T01:05:06.579Z,7.95
2023-05-12T01:07:33.722Z,7.03
2023-05-12T01:10:00.355Z,6.28
2023-05-12T01:12:28.065Z,7.18
2023-05-12T01:14:57.104Z,6.45
2023-05-12T01:17:35.072Z,7.90
2023-05-12T01:20:04.610Z,6.40
2023-05-12T01:22:33.565Z,5.97
2023-05-12T01:25:02.653Z,6.55
2023-05-12T01:27:30.016Z,6.07
2023-05-12T01:29:59.410Z,6.10
2023-05-12T01:32:26.438Z,6.68
2023-05-12T01:34:53.091Z,7.35
2023-05-12T01:37:19.860Z,7.32
2023-05-12T01:39:46.413Z,8.35
2023-05-12T01:42:13.103Z,6.88
2023-05-12T01:44:39.641Z,7.32
2023-05-12T01:47:09.854Z,7.60
2023-05-12T01:49:36.429Z,7.28
2023-05-12T01:52:03.104Z,6.85
2023-05-12T01:54:29.723Z,8.10
2023-05-12T01:56:56.213Z,8.57
2023-05-12T01:59:22.854Z,6.40
2023-05-12T02:01:49.613Z,7.95
2023-05-12T02:04:22.507Z,7.63
2023-05-12T02:06:49.002Z,8.15
2023-05-12T02:09:15.495Z,8.18
2023-05-12T02:11:41.987Z,6.95
2023-05-12T02:14:08.605Z,7.32
2023-05-12T02:16:35.192Z,7.35
2023-05-12T02:19:01.833Z,8.55
2023-05-12T02:21:28.418Z,7.78
2023-05-12T02:23:56.279Z,8.60
2023-05-12T02:26:22.905Z,8.68
2023-05-12T02:28:51.734Z,8.35
2023-05-12T02:31:18.333Z,6.88
2023-05-12T02:33:44.941Z,6.65
2023-05-12T02:36:12.844Z,7.65
2023-05-12T02:38:54.954Z,7.57
2023-05-12T02:41:21.495Z,8.48
2023-05-12T02:43:48.030Z,8.95
2023-05-12T02:46:14.547Z,8.85
2023-05-12T02:48:41.105Z,7.97
2023-05-12T02:51:10.506Z,9.05
2023-05-12T02:53:39.222Z,8.68
2023-05-12T02:56:10.797Z,8.95
2023-05-12T02:58:37.577Z,8.82
2023-05-12T03:02:12.070Z,7.63
2023-05-12T03:04:38.614Z,8.20
2023-05-12T03:10:25.789Z,8.70
2023-05-12T03:17:40.858Z,8.77
2023-05-12T03:20:10.196Z,8.30
2023-05-12T03:22:36.768Z,8.65
2023-05-12T03:28:03.647Z,7.55
2023-05-12T03:30:30.150Z,6.25
2023-05-12T03:32:56.683Z,6.63
2023-05-12T03:35:36.006Z,6.55
2023-05-12T03:38:02.502Z,6.82
2023-05-12T03:45:04.842Z,6.40
2023-05-12T03:55:55.945Z,6.35
2023-05-12T03:58:23.333Z,6.25
2023-05-12T04:00:50.814Z,5.82
2023-05-12T04:09:32.968Z,5.55
2023-05-12T04:14:35.163Z,5.93
2023-05-12T04:19:32.575Z,5.93
2023-05-12T04:21:59.051Z,5.53
2023-05-12T04:24:25.644Z,5.30
2023-05-12T04:26:52.161Z,4.70
2023-05-12T04:29:18.912Z,4.95
2023-05-12T04:31:45.470Z,6.05
2023-05-12T04:34:18.041Z,5.20
2023-05-12T04:36:44.526Z,5.63
2023-05-12T04:39:13.707Z,5.47
2023-05-12T04:41:40.242Z,4.97
2023-05-12T04:48:27.712Z,5.80
2023-05-12T04:51:00.272Z,5.20
2023-05-12T04:53:27.674Z,5.53
2023-05-12T04:56:12.797Z,6.65
2023-05-12T04:58:39.323Z,7.32
2023-05-12T05:01:05.928Z,7.10
2023-05-12T05:03:37.606Z,6.55
2023-05-12T05:09:50.203Z,6.28
2023-05-12T05:12:30.660Z,6.78
2023-05-12T05:15:03.105Z,7.35
2023-05-12T05:17:29.685Z,7.50
2023-05-12T05:19:59.356Z,7.22
2023-05-12T05:22:27.337Z,6.78
2023-05-12T05:24:53.918Z,7.15
2023-05-12T05:27:20.733Z,7.00
2023-05-12T05:29:47.339Z,6.30
2023-05-12T05:32:13.859Z,6.53
2023-05-12T05:34:40.483Z,6.38
2023-05-12T05:37:07.454Z,5.78
2023-05-12T05:39:33.981Z,6.28
2023-05-12T05:42:00.573Z,6.15
2023-05-12T05:44:27.083Z,7.47
2023-05-12T05:46:53.633Z,6.65
2023-05-12T05:49:20.158Z,6.60
2023-05-12T05:51:46.720Z,7.28
2023-05-12T05:54:13.281Z,7.10
2023-05-12T05:56:39.763Z,6.55
2023-05-12T05:59:06.343Z,7.43
2023-05-12T06:01:33.060Z,6.55
2023-05-12T06:03:59.838Z,6.45
2023-05-12T06:06:26.523Z,7.43
2023-05-12T06:08:55.977Z,7.85
2023-05-12T06:11:22.720Z,8.10
2023-05-12T06:13:49.264Z,7.97
2023-05-12T06:16:15.846Z,8.82
2023-05-12T06:18:42.543Z,8.93
2023-05-12T06:21:09.617Z,9.02
2023-05-12T06:23:36.205Z,7.85
2023-05-12T06:26:03.180Z,8.15
2023-05-12T06:28:29.732Z,7.90
2023-05-12T06:30:56.325Z,8.00
2023-05-12T06:33:22.826Z,9.07
2023-05-12T06:35:49.350Z,8.27
2023-05-12T06:38:15.906Z,8.35
2023-05-12T06:40:42.421Z,7.40
2023-05-12T06:43:08.933Z,7.63
2023-05-12T06:45:35.499Z,7.15
2023-05-12T06:48:03.207Z,7.68
2023-05-12T06:50:29.831Z,7.30
2023-05-12T06:52:56.324Z,7.10
2023-05-12T06:55:23.443Z,7.32
2023-05-12T06:57:57.476Z,7.63
2023-05-12T07:00:24.886Z,7.05
2023-05-12T07:02:52.150Z,6.90
2023-05-12T07:05:19.178Z,6.28
2023-05-12T07:07:45.847Z,7.15
2023-05-12T07:10:12.415Z,5.80
2023-05-12T07:12:39.331Z,6.57
2023-05-12T07:15:06.836Z,6.22
2023-05-12T07:17:33.375Z,6.00
2023-05-12T07:20:00.001Z,5.63
2023-05-12T07:22:26.818Z,6.25
2023-05-12T07:24:53.443Z,6.53
2023-05-12T07:30:08.658Z,5.22
2023-05-12T07:32:35.332Z,5.65
2023-05-12T07:35:02.053Z,6.03
2023-05-12T07:37:28.640Z,5.80
2023-05-12T07:40:00.705Z,5.72
2023-05-12T07:42:29.950Z,5.32
2023-05-12T07:45:02.571Z,5.90
2023-05-12T07:47:31.238Z,5.57
2023-05-12T07:49:58.141Z,6.18
2023-05-12T07:52:24.961Z,6.60
2023-05-12T07:54:51.498Z,5.53
2023-05-12T07:57:18.036Z,5.50
2023-05-12T07:59:44.594Z,5.78
2023-05-12T08:02:11.157Z,6.20
2023-05-12T08:04:37.823Z,5.10
2023-05-12T08:07:04.729Z,5.55
2023-05-12T08:09:31.163Z,5.68
2023-05-12T08:11:57.720Z,5.38
2023-05-12T08:14:25.667Z,4.93
2023-05-12T08:16:52.371Z,5.30
2023-05-12T08:19:19.019Z,5.97
2023-05-12T08:21:45.685Z,6.75
2023-05-12T08:24:12.232Z,6.07
2023-05-12T08:26:38.736Z,6.55
2023-05-12T08:29:06.640Z,6.97
2023-05-12T08:31:33.445Z,6.35
2023-05-12T08:34:09.867Z,7.22
2023-05-12T08:36:38.744Z,6.43
2023-05-12T08:39:05.384Z,6.43
2023-05-12T08:41:38.843Z,6.00
2023-05-12T08:44:06.511Z,6.45
2023-05-12T08:46:33.337Z,6.55
2023-05-12T08:49:02.509Z,6.93
2023-05-12T08:51:31.691Z,7.73
2023-05-12T08:53:58.989Z,7.53
2023-05-12T09:01:23.274Z,6.85
2023-05-12T09:03:52.931Z,6.60
2023-05-12T09:06:19.771Z,6.68
2023-05-12T09:08:46.333Z,7.35
2023-05-12T09:11:13.781Z,6.13
2023-05-12T09:14:02.691Z,6.95
2023-05-12T09:16:31.765Z,7.30
2023-05-12T09:19:00.222Z,6.80
2023-05-12T09:21:27.812Z,6.60
2023-05-12T09:24:03.199Z,5.78
2023-05-12T09:26:29.844Z,4.68
2023-05-12T09:29:07.187Z,5.88
2023-05-12T09:31:34.565Z,4.93
2023-05-12T09:34:13.420Z,4.95
2023-05-12T09:36:42.926Z,4.97
2023-05-12T09:39:10.447Z,4.47
2023-05-12T09:41:37.766Z,4.18
2023-05-12T09:44:05.378Z,4.20
2023-05-12T09:46:35.652Z,4.00
2023-05-12T09:49:07.921Z,4.05
2023-05-12T09:51:37.879Z,3.58
2023-05-12T09:54:07.591Z,4.00
2023-05-12T09:56:54.198Z,3.85
2023-05-12T09:59:21.326Z,3.60
2023-05-12T10:01:50.392Z,3.90
2023-05-12T10:04:17.342Z,4.67
2023-05-12T10:06:53.153Z,4.65
2023-05-12T10:09:39.208Z,5.20
2023-05-12T10:12:06.487Z,4.18
2023-05-12T10:14:33.789Z,3.70
2023-05-12T10:17:01.798Z,3.17
2023-05-12T10:19:34.820Z,2.60
2023-05-12T10:22:01.989Z,3.55
2023-05-12T10:24:54.428Z,2.65
2023-05-12T10:27:22.476Z,3.00
2023-05-12T10:29:51.502Z,3.13
2023-05-12T10:32:19.565Z,3.05
2023-05-12T10:34:46.409Z,3.45
2023-05-12T10:37:13.100Z,2.72
2023-05-12T10:39:52.193Z,3.38
2023-05-12T10:42:26.891Z,3.13
2023-05-12T10:44:54.386Z,3.00
2023-05-12T10:47:26.935Z,3.08
2023-05-12T10:49:59.721Z,3.22
2023-05-12T10:52:26.339Z,2.80
2023-05-12T10:55:00.856Z,2.75
2023-05-12T10:57:28.885Z,3.15
2023-05-12T11:00:01.011Z,2.60
2023-05-12T11:02:32.362Z,2.97
2023-05-12T11:05:05.312Z,2.88
2023-05-12T11:07:35.094Z,3.22
2023-05-12T11:10:04.750Z,3.30
2023-05-12T11:12:35.438Z,3.10
2023-05-12T11:17:29.303Z,2.65
2023-05-12T11:19:59.124Z,2.65
2023-05-12T11:22:25.947Z,2.78
2023-05-12T11:24:53.020Z,3.15
2023-05-12T11:27:21.269Z,2.80
2023-05-12T11:29:59.708Z,2.70
2023-05-12T11:32:26.740Z,2.63
2023-05-12T11:34:53.342Z,3.03
2023-05-12T11:37:21.125Z,2.40
2023-05-12T11:39:48.183Z,3.03
2023-05-12T11:42:16.291Z,3.10
2023-05-12T11:44:49.517Z,3.10
2023-05-12T11:47:17.189Z,3.03
2023-05-12T11:49:50.988Z,2.72
2023-05-12T11:52:19.643Z,3.05
2023-05-12T11:55:06.051Z,3.30
2023-05-12T11:57:36.341Z,3.50
2023-05-12T12:00:07.933Z,3.60
2023-05-12T12:02:36.754Z,3.42
2023-05-12T12:05:03.573Z,2.72
2023-05-12T12:07:32.044Z,3.40
2023-05-12T12:09:59.538Z,3.38
2023-05-12T12:12:26.061Z,3.60
2023-05-12T12:14:52.540Z,3.28
2023-05-12T12:17:19.035Z,3.28
2023-05-12T12:19:47.764Z,3.45
2023-05-12T12:22:14.434Z,2.90
2023-05-12T12:24:40.984Z,3.72
2023-05-12T12:27:07.594Z,3.45
2023-05-12T12:29:34.197Z,3.15
2023-05-12T12:32:00.754Z,2.72
2023-05-12T12:34:27.195Z,3.13
2023-05-12T12:36:53.750Z,3.60
2023-05-12T12:39:23.186Z,2.80
2023-05-12T12:41:50.236Z,2.88
2023-05-12T12:44:17.757Z,2.65
2023-05-12T12:46:44.361Z,2.40
2023-05-12T12:49:11.305Z,2.70
2023-05-12T12:51:45.719Z,2.08
2023-05-12T12:54:13.147Z,2.30
2023-05-12T12:56:39.731Z,2.15
2023-05-12T12:59:06.474Z,2.00
2023-05-12T13:01:33.965Z,2.25
2023-05-12T13:04:01.121Z,2.55
2023-05-12T13:06:27.776Z,2.58
2023-05-12T13:08:54.381Z,2.67
2023-05-12T13:11:20.885Z,1.88
2023-05-12T13:13:47.453Z,3.28
2023-05-12T13:16:14.061Z,2.65
2023-05-12T13:18:40.700Z,2.58
2023-05-12T13:21:07.323Z,1.98
2023-05-12T13:23:33.836Z,2.30
2023-05-12T13:26:00.478Z,2.55
2023-05-12T13:28:26.971Z,2.15
2023-05-12T13:30:53.505Z,2.35
2023-05-12T13:33:20.483Z,1.90
2023-05-12T13:35:47.010Z,1.92
2023-05-12T13:38:13.748Z,2.10
2023-05-12T13:40:41.595Z,1.77
2023-05-12T13:43:08.509Z,1.67
2023-05-12T13:45:34.989Z,1.73
2023-05-12T13:48:01.565Z,1.55
2023-05-12T13:50:28.180Z,1.27
2023-05-12T13:52:54.726Z,1.40
2023-05-12T13:55:22.079Z,1.08
2023-05-12T13:57:49.132Z,1.63
2023-05-12T14:00:17.305Z,1.55
2023-05-12T14:02:44.062Z,1.02
2023-05-12T14:05:10.849Z,1.02
2023-05-12T14:07:37.575Z,1.08
2023-05-12T14:10:04.196Z,1.02
2023-05-12T14:12:31.210Z,0.80
2023-05-12T14:15:07.288Z,0.80
2023-05-12T14:17:44.516Z,1.20
2023-05-12T14:20:11.595Z,1.38
2023-05-12T14:22:38.203Z,1.05
2023-05-12T14:25:05.083Z,1.17
2023-05-12T14:27:31.608Z,1.30
2023-05-12T14:29:58.107Z,1.15
2023-05-12T14:32:24.736Z,1.17
2023-05-12T14:34:51.330Z,1.35
2023-05-12T14:37:17.840Z,0.90
2023-05-12T14:39:44.392Z,1.00
2023-05-12T14:42:10.876Z,1.00
2023-05-12T14:44:37.586Z,1.10
2023-05-12T14:47:04.201Z,1.73
2023-05-12T14:49:30.710Z,1.50
2023-05-12T14:51:57.381Z,1.08
2023-05-12T14:54:25.953Z,1.02
2023-05-12T14:56:53.066Z,0.80
2023-05-12T14:59:19.722Z,1.10
2023-05-12T15:01:46.602Z,1.00
2023-05-12T15:04:13.347Z,0.85
2023-05-12T15:06:40.058Z,0.85
2023-05-12T15:09:07.287Z,1.00
2023-05-12T15:11:33.892Z,0.80
2023-05-12T15:14:00.414Z,1.00
2023-05-12T15:16:28.037Z,0.90
2023-05-12T15:18:54.909Z,1.38
2023-05-12T15:21:24.428Z,0.98
2023-05-12T15:23:50.956Z,0.93
2023-05-12T15:26:31.878Z,1.25
2023-05-12T15:29:00.670Z,1.23
2023-05-12T15:31:29.329Z,0.93
2023-05-12T15:33:59.285Z,1.23
2023-05-12T15:36:25.851Z,1.25
2023-05-12T15:38:52.400Z,0.93
2023-05-12T15:41:19.018Z,0.98
2023-05-12T15:43:45.605Z,1.10
2023-05-12T15:46:12.287Z,1.00
2023-05-12T15:48:39.385Z,1.00
2023-05-12T15:51:06.595Z,0.82
2023-05-12T15:53:33.266Z,1.00
2023-05-12T15:56:03.982Z,0.98
2023-05-12T15:58:31.388Z,1.20
2023-05-12T16:00:58.129Z,1.00
2023-05-12T16:03:24.893Z,0.88
2023-05-12T16:05:51.773Z,0.88
2023-05-12T16:08:18.701Z,1.63
2023-05-12T16:10:45.195Z,1.35
2023-05-12T16:13:11.746Z,1.10
2023-05-12T16:15:38.258Z,1.48
2023-05-12T16:18:06.980Z,1.55
2023-05-12T16:20:35.150Z,1.48
2023-05-12T16:23:02.427Z,1.40
2023-05-12T16:25:29.126Z,1.70
2023-05-12T16:27:55.957Z,1.70
2023-05-12T16:30:22.621Z,1.70
2023-05-12T16:32:49.367Z,1.58
2023-05-12T16:35:15.995Z,1.35
2023-05-12T16:37:42.682Z,2.20
2023-05-12T16:40:09.698Z,1.38
2023-05-12T16:42:36.669Z,1.83
2023-05-12T16:45:03.350Z,1.83
2023-05-12T16:47:29.924Z,1.83
2023-05-12T16:49:58.100Z,1.92
2023-05-12T16:52:25.523Z,1.73
2023-05-12T16:54:53.193Z,1.92
2023-05-12T16:57:20.487Z,1.60
2023-05-12T16:59:48.466Z,1.90
2023-05-12T17:02:15.420Z,1.90
2023-05-12T17:04:42.017Z,2.28
2023-05-12T17:07:09.131Z,2.03
2023-05-12T17:09:35.671Z,2.33
2023-05-12T17:12:02.829Z,2.30
2023-05-12T17:14:29.293Z,1.60
2023-05-12T17:16:55.828Z,1.60
2023-05-12T17:19:22.399Z,2.30
2023-05-12T17:21:48.935Z,1.90
2023-05-12T17:24:15.562Z,1.73
2023-05-12T17:26:42.244Z,1.70
2023-05-12T17:29:08.979Z,2.13
2023-05-12T17:31:37.335Z,1.63
2023-05-12T17:34:04.031Z,1.67
2023-05-12T17:36:31.052Z,1.67
2023-05-12T17:38:57.567Z,1.65
2023-05-12T17:41:24.853Z,1.88
2023-05-12T17:43:52.480Z,1.88
2023-05-12T17:46:19.163Z,1.98
2023-05-12T17:48:45.848Z,1.90
2023-05-12T17:51:12.351Z,1.90
2023-05-12T17:53:38.930Z,2.25
2023-05-12T17:56:05.842Z,1.77
2023-05-12T17:58:32.443Z,2.33
2023-05-12T18:00:59.105Z,1.80
2023-05-12T18:03:25.722Z,2.30
2023-05-12T18:05:53.419Z,1.90
2023-05-12T18:08:20.240Z,2.00
2023-05-12T18:10:46.880Z,1.90
2023-05-12T18:13:14.624Z,2.13
2023-05-12T18:15:41.865Z,1.90
2023-05-12T18:18:10.078Z,1.73
2023-05-12T18:20:37.009Z,2.10
2023-05-12T18:23:03.556Z,1.98
2023-05-12T18:25:30.117Z,2.17
2023-05-12T18:27:56.808Z,2.03
2023-05-12T18:30:23.336Z,1.95
2023-05-12T18:32:50.728Z,2.28
2023-05-12T18:35:17.394Z,2.00
2023-05-12T18:37:44.059Z,2.17
2023-05-12T18:40:11.270Z,2.08
2023-05-12T18:42:38.608Z,1.90
2023-05-12T18:45:05.860Z,2.28
2023-05-12T18:47:33.450Z,2.17
2023-05-12T18:50:00.174Z,2.17
2023-05-12T18:52:26.716Z,2.25
2023-05-12T18:54:53.210Z,2.00
2023-05-12T18:57:19.722Z,1.70
2023-05-12T18:59:46.314Z,1.92
2023-05-12T19:02:12.978Z,2.25
2023-05-12T19:04:39.572Z,1.88
2023-05-12T19:07:09.684Z,1.80
2023-05-12T19:09:37.163Z,1.65
2023-05-12T19:12:05.974Z,1.67
2023-05-12T19:14:32.774Z,1.33
2023-05-12T19:16:59.344Z,1.92
2023-05-12T19:19:25.875Z,1.73
2023-05-12T19:21:52.563Z,1.73
2023-05-12T19:24:19.434Z,1.52
2023-05-12T19:26:46.238Z,1.60
2023-05-12T19:29:12.721Z,1.52
2023-05-12T19:31:39.372Z,1.70
2023-05-12T19:34:06.258Z,1.60
2023-05-12T19:36:32.926Z,1.75
2023-05-12T19:39:00.404Z,1.50
2023-05-12T19:41:28.037Z,1.13
2023-05-12T19:43:55.659Z,1.17
2023-05-12T19:46:22.577Z,1.42
2023-05-12T19:48:49.194Z,1.65
2023-05-12T19:51:15.796Z,1.35
2023-05-12T19:53:43.708Z,1.55
2023-05-12T19:56:10.346Z,1.52
2023-05-12T19:58:36.860Z,1.50
2023-05-12T20:01:03.433Z,1.38
2023-05-12T20:03:30.051Z,1.38
2023-05-12T20:05:56.877Z,1.88
2023-05-12T20:08:23.395Z,1.98
2023-05-12T20:10:49.881Z,1.65
2023-05-12T20:13:16.461Z,1.25
2023-05-12T20:15:44.093Z,1.27
2023-05-12T20:18:12.707Z,1.30
2023-05-12T20:20:39.344Z,1.65
2023-05-12T20:23:05.866Z,1.90
2023-05-12T20:25:33.168Z,1.50
2023-05-12T20:27:59.965Z,1.30
2023-05-12T20:30:26.856Z,1.10
2023-05-12T20:32:53.515Z,1.50
2023-05-12T20:35:20.537Z,1.40
2023-05-12T20:37:47.600Z,1.52
2023-05-12T20:40:14.319Z,1.50
2023-05-12T20:42:40.887Z,1.35
2023-05-12T20:45:08.712Z,1.33
2023-05-12T20:47:36.627Z,2.30
2023-05-12T20:50:05.695Z,1.63
2023-05-12T20:52:42.098Z,1.65
2023-05-12T20:55:09.606Z,1.52
2023-05-12T20:57:37.733Z,1.90
2023-05-12T21:00:04.902Z,1.83
2023-05-12T21:02:31.658Z,1.73
2023-05-12T21:04:58.314Z,1.42
2023-05-12T21:07:24.967Z,1.83
2023-05-12T21:09:51.516Z,1.70
2023-05-12T21:12:18.137Z,2.08
2023-05-12T21:14:45.185Z,1.83
2023-05-12T21:17:12.323Z,1.38
2023-05-12T21:19:40.056Z,1.80
2023-05-12T21:22:07.653Z,1.98
2023-05-12T21:24:34.318Z,1.83
2023-05-12T21:27:05.079Z,2.38
2023-05-12T21:29:32.735Z,2.13
2023-05-12T21:32:00.068Z,1.98
2023-05-12T21:34:27.012Z,1.70
2023-05-12T21:36:54.800Z,1.92
2023-05-12T21:39:22.052Z,2.03
2023-05-12T21:41:49.002Z,1.88
2023-05-12T21:44:16.233Z,2.47
2023-05-12T21:46:42.949Z,2.55
2023-05-12T21:49:09.880Z,3.40
2023-05-12T21:51:36.492Z,2.40
2023-05-12T21:54:03.217Z,2.90
2023-05-12T21:56:29.784Z,3.13
2023-05-12T21:58:56.425Z,3.03
2023-05-12T22:01:23.135Z,3.30
2023-05-12T22:03:49.875Z,2.92
2023-05-12T22:06:16.931Z,3.38
2023-05-12T22:08:43.569Z,2.95
2023-05-12T22:11:11.210Z,3.38
2023-05-12T22:13:38.015Z,2.75
2023-05-12T22:16:04.947Z,2.88
2023-05-12T22:18:32.029Z,2.90
2023-05-12T22:20:58.910Z,3.45
2023-05-12T22:23:25.576Z,3.13
2023-05-12T22:25:52.291Z,3.10
2023-05-12T22:28:18.816Z,4.00
2023-05-12T22:30:45.520Z,3.25
2023-05-12T22:33:12.122Z,3.53
2023-05-12T22:35:38.753Z,3.35
2023-05-12T22:38:05.817Z,3.78
2023-05-12T22:40:33.665Z,3.78
2023-05-12T22:43:00.249Z,3.33
2023-05-12T22:45:26.889Z,3.67
2023-05-12T22:47:53.598Z,3.70
2023-05-12T22:50:20.730Z,3.80
2023-05-12T22:52:47.445Z,3.45
2023-05-12T22:55:14.134Z,3.55
2023-05-12T22:57:41.048Z,3.83
2023-05-12T23:00:08.254Z,3.65
2023-05-12T23:02:34.978Z,3.47
2023-05-12T23:05:01.602Z,3.80
2023-05-12T23:07:28.239Z,3.45
2023-05-12T23:09:54.757Z,3.92
2023-05-12T23:12:21.319Z,3.17
2023-05-12T23:14:47.907Z,3.30
2023-05-12T23:17:14.405Z,3.58
2023-05-12T23:19:40.939Z,3.70
2023-05-12T23:22:07.467Z,4.20
2023-05-12T23:24:35.960Z,4.32
2023-05-12T23:27:02.572Z,4.75
2023-05-12T23:29:29.176Z,4.20
2023-05-12T23:31:56.460Z,3.85
2023-05-12T23:34:23.120Z,3.85
2023-05-12T23:36:49.761Z,3.75
2023-05-12T23:39:16.528Z,4.38
2023-05-12T23:41:43.095Z,4.32
2023-05-12T23:44:09.589Z,4.40
2023-05-12T23:46:36.576Z,3.60
2023-05-12T23:49:03.711Z,3.63
2023-05-12T23:51:30.250Z,4.43
2023-05-12T23:53:56.777Z,4.57
2023-05-12T23:56:23.351Z,4.03
2023-05-12T23:58:49.954Z,4.72
